Terminal Aerodrome Forecast
Issued by NWS Portland, OR

Home | Current Version | Previous Version | Text Only | Print | Product List | Glossary On
Versions: 1 2 3 4 5 6 7 8 9 10 11 12 13 14 15 16 17 18 19 20 21
000
FTUS46 KPQR 240536
TAFSLE
TAF
KSLE 240536Z 2406/2506 00000KT P6SM SCT030 SCT060
     FM240800 00000KT 5SM BR SCT004 BKN060
      TEMPO 2409/2413 2SM BR BKN004 BKN060
     FM241400 VRB03KT P6SM VCSH SCT025 BKN060
     FM241600 16005KT P6SM -SHRASN BKN025 BKN050
     FM242100 15006KT P6SM -SHRAGS BKN035 BKN050=

USA.gov is the U.S. government's official web portal to all federal, state and local government web resources and services.